Decoded Metar for LFBU (ANGOULEME in FRANCE) (IATA:ANG) | Meteo·Mobile Aviation Weather
aviador You're here:

LFBU Decoded Metar

ANGOULEME in FRANCE
Report Time2018-11-14 11:30:00
UTC Time2018-11-14 12:01:59
Flight Rules vfr VFR
Wind140° at 06 kt
W.Decomp.*RWY 10: 4.5 kt HW 3.9 kt RCW
W.Rank140° ranks 11
Current wind is above 140° avg. (5.9)
Visibility9999 m
Phenomena:N/A
Clouds:N/A
Expected CloudBase > 2,000 ft AGL from Temp-Dew spread
CeilingNone
Temp18°C (ISA +4)
Dew Point13°C (73% RH)
AAT16.8°C
QNH1023 hPa
Density Alt755 ft
Elevation436 ft
Report Wrong Elevation
Raw Report
METAR LFBU 141130Z AUTO 14006KT 100V190 CAVOK 18/13 Q1023 NOSIG=

Extra information for LFBU:More info

Metar Taf Metar & Taf Last 4 Metars F.Rules Stats Wind Profile Meteogram Temp Stats Airport Information Weather charts Add Link Nearby VenuesMetar ALERT Operation Metar Decoded Social comments